sensor_id;sensor_type;location;lat;lon;timestamp;pressure;altitude;pressure_sealevel;temperature;humidity
21520;BME280;10921;53.614;9.882;2023-06-22T00:00:10;101750.66;;;18.95;75.02
21520;BME280;10921;53.614;9.882;2023-06-22T00:02:38;101759.78;;;18.94;75.55
21520;BME280;10921;53.614;9.882;2023-06-22T00:05:05;101744.09;;;18.90;76.05
21520;BME280;10921;53.614;9.882;2023-06-22T00:07:31;101750.69;;;18.87;76.07
21520;BME280;10921;53.614;9.882;2023-06-22T00:09:58;101749.19;;;18.85;76.45
21520;BME280;10921;53.614;9.882;2023-06-22T00:12:24;101749.53;;;18.82;76.30
21520;BME280;10921;53.614;9.882;2023-06-22T00:14:51;101725.91;;;18.68;77.02
21520;BME280;10921;53.614;9.882;2023-06-22T00:17:17;101744.66;;;18.77;77.67
21520;BME280;10921;53.614;9.882;2023-06-22T00:19:46;101749.22;;;18.77;77.58
21520;BME280;10921;53.614;9.882;2023-06-22T00:22:13;101744.81;;;18.76;77.32
21520;BME280;10921;53.614;9.882;2023-06-22T00:24:40;101715.44;;;18.56;77.77
21520;BME280;10921;53.614;9.882;2023-06-22T00:27:06;101747.19;;;18.71;77.85
21520;BME280;10921;53.614;9.882;2023-06-22T00:29:33;101752.25;;;18.66;78.02
21520;BME280;10921;53.614;9.882;2023-06-22T00:31:59;101747.56;;;18.59;78.40
21520;BME280;10921;53.614;9.882;2023-06-22T00:34:26;101760.75;;;18.63;78.58
21520;BME280;10921;53.614;9.882;2023-06-22T00:36:53;101751.75;;;18.54;79.01
21520;BME280;10921;53.614;9.882;2023-06-22T00:39:19;101732.34;;;18.42;78.78
21520;BME280;10921;53.614;9.882;2023-06-22T00:41:45;101763.06;;;18.57;79.56
21520;BME280;10921;53.614;9.882;2023-06-22T00:44:12;101782.16;;;18.56;79.50
21520;BME280;10921;53.614;9.882;2023-06-22T00:46:38;101731.84;;;18.39;79.81
21520;BME280;10921;53.614;9.882;2023-06-22T00:49:05;101743.66;;;18.38;80.32
21520;BME280;10921;53.614;9.882;2023-06-22T00:51:32;101762.06;;;18.50;80.85
21520;BME280;10921;53.614;9.882;2023-06-22T00:53:58;101764.44;;;18.45;81.07
21520;BME280;10921;53.614;9.882;2023-06-22T00:56:25;101773.22;;;18.47;81.29
21520;BME280;10921;53.614;9.882;2023-06-22T00:58:53;101762.41;;;18.47;81.67
21520;BME280;10921;53.614;9.882;2023-06-22T01:01:20;101770.69;;;18.46;81.39
21520;BME280;10921;53.614;9.882;2023-06-22T01:03:50;101768.31;;;18.43;81.22
21520;BME280;10921;53.614;9.882;2023-06-22T01:06:22;101776.28;;;18.44;81.72
21520;BME280;10921;53.614;9.882;2023-06-22T01:09:11;101745.53;;;18.29;81.64
21520;BME280;10921;53.614;9.882;2023-06-22T01:11:45;101717.19;;;18.09;81.70
21520;BME280;10921;53.614;9.882;2023-06-22T01:16:54;101761.72;;;18.37;81.59
21520;BME280;10921;53.614;9.882;2023-06-22T01:22:00;101756.03;;;18.32;82.14
21520;BME280;10921;53.614;9.882;2023-06-22T01:27:49;101762.59;;;18.38;82.03
21520;BME280;10921;53.614;9.882;2023-06-22T01:30:18;101743.69;;;18.21;82.23
21520;BME280;10921;53.614;9.882;2023-06-22T01:32:47;101755.50;;;18.28;82.94
21520;BME280;10921;53.614;9.882;2023-06-22T01:35:15;101750.59;;;18.24;83.04
21520;BME280;10921;53.614;9.882;2023-06-22T01:37:43;101752.13;;;18.26;82.94
21520;BME280;10921;53.614;9.882;2023-06-22T01:40:10;101760.41;;;18.25;83.12
21520;BME280;10921;53.614;9.882;2023-06-22T01:42:38;101746.03;;;18.24;83.43
21520;BME280;10921;53.614;9.882;2023-06-22T01:45:05;101755.16;;;18.23;83.49
21520;BME280;10921;53.614;9.882;2023-06-22T01:47:33;101712.44;;;18.03;83.66
21520;BME280;10921;53.614;9.882;2023-06-22T01:50:00;101744.00;;;18.18;83.98
21520;BME280;10921;53.614;9.882;2023-06-22T01:52:27;101731.69;;;18.08;84.12
21520;BME280;10921;53.614;9.882;2023-06-22T01:54:53;101760.22;;;18.26;84.17
21520;BME280;10921;53.614;9.882;2023-06-22T01:57:20;101747.91;;;18.24;84.04
21520;BME280;10921;53.614;9.882;2023-06-22T01:59:55;101746.56;;;18.28;84.33
21520;BME280;10921;53.614;9.882;2023-06-22T02:02:24;101716.50;;;18.07;84.21
21520;BME280;10921;53.614;9.882;2023-06-22T02:04:59;101715.81;;;18.05;84.50
21520;BME280;10921;53.614;9.882;2023-06-22T02:07:33;101755.84;;;18.25;84.21
21520;BME280;10921;53.614;9.882;2023-06-22T02:10:02;101759.56;;;18.24;84.16
21520;BME280;10921;53.614;9.882;2023-06-22T02:12:30;101755.84;;;18.25;84.30
21520;BME280;10921;53.614;9.882;2023-06-22T02:14:58;101760.56;;;18.23;84.11
21520;BME280;10921;53.614;9.882;2023-06-22T02:17:27;101751.78;;;18.21;84.55
21520;BME280;10921;53.614;9.882;2023-06-22T02:19:54;101742.16;;;18.11;84.69
21520;BME280;10921;53.614;9.882;2023-06-22T02:22:20;101754.81;;;18.18;84.79
21520;BME280;10921;53.614;9.882;2023-06-22T02:24:47;101759.56;;;18.16;84.78
21520;BME280;10921;53.614;9.882;2023-06-22T02:27:14;101746.22;;;18.07;85.06
21520;BME280;10921;53.614;9.882;2023-06-22T02:29:40;101754.66;;;18.12;85.07
21520;BME280;10921;53.614;9.882;2023-06-22T02:32:07;101751.63;;;18.07;85.21
21520;BME280;10921;53.614;9.882;2023-06-22T02:34:33;101743.50;;;18.07;85.64
21520;BME280;10921;53.614;9.882;2023-06-22T02:37:00;101736.41;;;18.06;86.03
21520;BME280;10921;53.614;9.882;2023-06-22T02:39:27;101724.63;;;17.99;85.98
21520;BME280;10921;53.614;9.882;2023-06-22T02:41:54;101739.97;;;17.98;86.50
21520;BME280;10921;53.614;9.882;2023-06-22T02:44:21;101645.59;;;17.40;86.73
21520;BME280;10921;53.614;9.882;2023-06-22T02:46:48;101731.88;;;17.82;86.56
21520;BME280;10921;53.614;9.882;2023-06-22T02:49:15;101739.94;;;17.90;86.78
21520;BME280;10921;53.614;9.882;2023-06-22T02:51:44;101743.19;;;17.85;87.25
21520;BME280;10921;53.614;9.882;2023-06-22T02:54:11;101710.94;;;17.68;87.09
21520;BME280;10921;53.614;9.882;2023-06-22T02:56:37;101733.88;;;17.80;86.76
21520;BME280;10921;53.614;9.882;2023-06-22T02:59:04;101745.16;;;17.75;86.92
21520;BME280;10921;53.614;9.882;2023-06-22T03:01:30;101746.34;;;17.73;87.11
21520;BME280;10921;53.614;9.882;2023-06-22T03:04:04;101732.53;;;17.68;87.32
21520;BME280;10921;53.614;9.882;2023-06-22T03:06:31;101734.38;;;17.67;87.94
21520;BME280;10921;53.614;9.882;2023-06-22T03:09:02;101702.09;;;17.41;88.32
21520;BME280;10921;53.614;9.882;2023-06-22T03:11:31;101740.38;;;17.61;87.73
21520;BME280;10921;53.614;9.882;2023-06-22T03:13:58;101747.31;;;17.55;88.40
21520;BME280;10921;53.614;9.882;2023-06-22T03:16:26;101751.19;;;17.53;88.23
21520;BME280;10921;53.614;9.882;2023-06-22T03:18:53;101745.75;;;17.45;88.86
21520;BME280;10921;53.614;9.882;2023-06-22T03:21:22;101755.22;;;17.49;88.92
21520;BME280;10921;53.614;9.882;2023-06-22T03:23:49;101752.00;;;17.45;88.60
21520;BME280;10921;53.614;9.882;2023-06-22T03:26:17;101746.59;;;17.45;89.17
21520;BME280;10921;53.614;9.882;2023-06-22T03:28:44;101759.25;;;17.45;89.25
21520;BME280;10921;53.614;9.882;2023-06-22T03:31:10;101757.06;;;17.40;89.61
21520;BME280;10921;53.614;9.882;2023-06-22T03:33:37;101731.53;;;17.27;90.01
21520;BME280;10921;53.614;9.882;2023-06-22T03:36:04;101763.78;;;17.44;90.21
21520;BME280;10921;53.614;9.882;2023-06-22T03:38:30;101767.34;;;17.45;90.43
21520;BME280;10921;53.614;9.882;2023-06-22T03:40:57;101771.56;;;17.47;90.93
21520;BME280;10921;53.614;9.882;2023-06-22T03:43:24;101766.16;;;17.47;91.14
21520;BME280;10921;53.614;9.882;2023-06-22T03:45:50;101765.16;;;17.48;91.16
21520;BME280;10921;53.614;9.882;2023-06-22T03:48:17;101776.00;;;17.56;91.10
21520;BME280;10921;53.614;9.882;2023-06-22T03:50:43;101771.09;;;17.60;91.67
21520;BME280;10921;53.614;9.882;2023-06-22T03:53:10;101727.38;;;17.40;91.90
21520;BME280;10921;53.614;9.882;2023-06-22T03:55:37;101755.28;;;17.65;92.01
21520;BME280;10921;53.614;9.882;2023-06-22T03:58:03;101775.22;;;17.80;92.08
21520;BME280;10921;53.614;9.882;2023-06-22T04:00:32;101771.19;;;17.84;92.15
21520;BME280;10921;53.614;9.882;2023-06-22T04:02:59;101739.09;;;17.65;92.28
21520;BME280;10921;53.614;9.882;2023-06-22T04:05:25;101780.47;;;17.98;91.90
21520;BME280;10921;53.614;9.882;2023-06-22T04:07:52;101789.78;;;18.12;91.40
21520;BME280;10921;53.614;9.882;2023-06-22T04:10:18;101757.03;;;17.99;91.46
21520;BME280;10921;53.614;9.882;2023-06-22T04:12:45;101784.22;;;18.30;91.65
21520;BME280;10921;53.614;9.882;2023-06-22T04:15:11;101757.34;;;18.20;91.12
21520;BME280;10921;53.614;9.882;2023-06-22T04:17:38;101787.09;;;18.44;91.08
21520;BME280;10921;53.614;9.882;2023-06-22T04:20:05;101768.66;;;18.40;90.55
21520;BME280;10921;53.614;9.882;2023-06-22T04:22:32;101802.13;;;18.63;90.41
21520;BME280;10921;53.614;9.882;2023-06-22T04:24:59;101731.34;;;18.27;89.45
21520;BME280;10921;53.614;9.882;2023-06-22T04:27:25;101800.41;;;18.78;89.06
21520;BME280;10921;53.614;9.882;2023-06-22T04:29:52;101790.78;;;18.76;88.51
21520;BME280;10921;53.614;9.882;2023-06-22T04:32:19;101789.75;;;18.85;88.32
21520;BME280;10921;53.614;9.882;2023-06-22T04:34:45;101803.91;;;19.03;89.13
21520;BME280;10921;53.614;9.882;2023-06-22T04:37:12;101805.72;;;19.11;87.94
21520;BME280;10921;53.614;9.882;2023-06-22T04:39:42;101777.53;;;19.05;87.55
21520;BME280;10921;53.614;9.882;2023-06-22T04:42:09;101792.69;;;19.22;88.04
21520;BME280;10921;53.614;9.882;2023-06-22T04:44:36;101809.31;;;19.42;87.63
21520;BME280;10921;53.614;9.882;2023-06-22T04:47:02;101789.41;;;19.35;86.92
21520;BME280;10921;53.614;9.882;2023-06-22T04:49:30;101758.47;;;19.29;85.92
21520;BME280;10921;53.614;9.882;2023-06-22T04:52:12;101794.53;;;19.69;86.53
21520;BME280;10921;53.614;9.882;2023-06-22T04:54:40;101805.72;;;19.89;85.71
21520;BME280;10921;53.614;9.882;2023-06-22T04:57:14;101816.16;;;20.00;84.13
21520;BME280;10921;53.614;9.882;2023-06-22T04:59:42;101772.00;;;19.91;84.88
21520;BME280;10921;53.614;9.882;2023-06-22T05:02:09;101806.63;;;20.27;84.21
21520;BME280;10921;53.614;9.882;2023-06-22T05:04:36;101797.25;;;20.38;83.33
21520;BME280;10921;53.614;9.882;2023-06-22T05:07:06;101800.84;;;20.53;82.04
21520;BME280;10921;53.614;9.882;2023-06-22T05:09:33;101776.81;;;20.50;80.41
21520;BME280;10921;53.614;9.882;2023-06-22T05:12:00;101812.31;;;20.78;77.36
21520;BME280;10921;53.614;9.882;2023-06-22T05:14:29;101812.53;;;20.91;76.37
21520;BME280;10921;53.614;9.882;2023-06-22T05:16:56;101747.00;;;20.64;75.62
21520;BME280;10921;53.614;9.882;2023-06-22T05:19:25;101755.91;;;20.88;74.52
21520;BME280;10921;53.614;9.882;2023-06-22T05:21:57;101807.00;;;21.28;73.63
21520;BME280;10921;53.614;9.882;2023-06-22T05:24:24;101805.31;;;21.42;73.67
21520;BME280;10921;53.614;9.882;2023-06-22T05:27:08;101800.81;;;21.49;72.82
21520;BME280;10921;53.614;9.882;2023-06-22T05:29:53;101783.75;;;21.55;72.29
21520;BME280;10921;53.614;9.882;2023-06-22T05:32:37;101806.56;;;21.75;68.96
21520;BME280;10921;53.614;9.882;2023-06-22T05:35:21;101782.50;;;21.72;67.27
21520;BME280;10921;53.614;9.882;2023-06-22T05:37:47;101740.75;;;21.59;66.77
21520;BME280;10921;53.614;9.882;2023-06-22T05:40:14;101818.94;;;22.14;65.69
21520;BME280;10921;53.614;9.882;2023-06-22T05:42:41;101819.25;;;22.26;65.60
21520;BME280;10921;53.614;9.882;2023-06-22T05:45:08;101817.22;;;22.34;64.93
21520;BME280;10921;53.614;9.882;2023-06-22T05:47:34;101755.13;;;22.10;63.84
21520;BME280;10921;53.614;9.882;2023-06-22T05:50:01;101820.78;;;22.56;64.02
21520;BME280;10921;53.614;9.882;2023-06-22T05:52:32;101763.88;;;22.33;63.16
21520;BME280;10921;53.614;9.882;2023-06-22T05:54:59;101804.63;;;22.76;64.40
21520;BME280;10921;53.614;9.882;2023-06-22T05:57:25;101779.03;;;22.70;64.23
21520;BME280;10921;53.614;9.882;2023-06-22T05:59:52;101810.25;;;23.02;63.36
21520;BME280;10921;53.614;9.882;2023-06-22T06:02:20;101775.22;;;22.93;61.40
21520;BME280;10921;53.614;9.882;2023-06-22T06:04:46;101788.09;;;23.12;60.89
21520;BME280;10921;53.614;9.882;2023-06-22T06:07:13;101757.13;;;23.13;60.42
21520;BME280;10921;53.614;9.882;2023-06-22T06:09:40;101812.19;;;23.49;60.09
21520;BME280;10921;53.614;9.882;2023-06-22T06:12:07;101794.34;;;23.47;58.13
21520;BME280;10921;53.614;9.882;2023-06-22T06:14:36;101777.16;;;23.46;57.46
21520;BME280;10921;53.614;9.882;2023-06-22T06:17:02;101800.75;;;23.74;58.10
21520;BME280;10921;53.614;9.882;2023-06-22T06:19:29;101812.34;;;23.89;58.58
21520;BME280;10921;53.614;9.882;2023-06-22T06:21:55;101796.59;;;23.84;57.19
21520;BME280;10921;53.614;9.882;2023-06-22T06:24:22;101798.09;;;23.94;55.41
21520;BME280;10921;53.614;9.882;2023-06-22T06:26:48;101814.06;;;24.10;55.80
21520;BME280;10921;53.614;9.882;2023-06-22T06:29:15;101797.28;;;24.06;55.39
21520;BME280;10921;53.614;9.882;2023-06-22T06:31:42;101781.31;;;24.03;57.27
21520;BME280;10921;53.614;9.882;2023-06-22T06:34:09;101765.19;;;23.95;55.66
21520;BME280;10921;53.614;9.882;2023-06-22T06:36:35;101811.56;;;24.22;55.59
21520;BME280;10921;53.614;9.882;2023-06-22T06:39:02;101795.19;;;24.15;56.76
21520;BME280;10921;53.614;9.882;2023-06-22T06:41:30;101799.19;;;24.19;56.39
21520;BME280;10921;53.614;9.882;2023-06-22T06:43:56;101807.34;;;24.19;55.37
21520;BME280;10921;53.614;9.882;2023-06-22T06:46:23;101802.13;;;24.11;55.47
21520;BME280;10921;53.614;9.882;2023-06-22T06:48:49;101799.38;;;24.17;54.96
21520;BME280;10921;53.614;9.882;2023-06-22T06:51:16;101791.63;;;24.14;55.85
21520;BME280;10921;53.614;9.882;2023-06-22T06:53:42;101776.72;;;23.97;58.09
21520;BME280;10921;53.614;9.882;2023-06-22T06:56:09;101736.63;;;23.84;56.33
21520;BME280;10921;53.614;9.882;2023-06-22T06:58:38;101791.25;;;24.24;55.91
21520;BME280;10921;53.614;9.882;2023-06-22T07:01:05;101792.94;;;24.38;56.16
21520;BME280;10921;53.614;9.882;2023-06-22T07:03:32;101759.56;;;24.23;55.69
21520;BME280;10921;53.614;9.882;2023-06-22T07:05:59;101800.09;;;24.59;58.21
21520;BME280;10921;53.614;9.882;2023-06-22T07:08:26;101799.66;;;24.69;56.20
21520;BME280;10921;53.614;9.882;2023-06-22T07:10:53;101771.72;;;24.67;55.00
21520;BME280;10921;53.614;9.882;2023-06-22T07:13:19;101774.25;;;24.75;54.45
21520;BME280;10921;53.614;9.882;2023-06-22T07:15:46;101797.72;;;25.02;54.05
21520;BME280;10921;53.614;9.882;2023-06-22T07:18:12;101784.66;;;25.11;54.11
21520;BME280;10921;53.614;9.882;2023-06-22T07:20:39;101787.13;;;25.26;53.43
21520;BME280;10921;53.614;9.882;2023-06-22T07:23:07;101797.59;;;25.42;53.65
21520;BME280;10921;53.614;9.882;2023-06-22T07:25:33;101747.41;;;25.30;52.55
21520;BME280;10921;53.614;9.882;2023-06-22T07:28:02;101785.47;;;25.76;52.54
21520;BME280;10921;53.614;9.882;2023-06-22T07:30:30;101794.66;;;26.19;53.94
21520;BME280;10921;53.614;9.882;2023-06-22T07:32:58;101793.88;;;26.12;50.72
21520;BME280;10921;53.614;9.882;2023-06-22T07:35:30;101788.31;;;26.25;50.11
21520;BME280;10921;53.614;9.882;2023-06-22T07:37:57;101789.06;;;26.39;49.52
21520;BME280;10921;53.614;9.882;2023-06-22T07:40:23;101787.06;;;26.53;50.35
21520;BME280;10921;53.614;9.882;2023-06-22T07:42:50;101800.22;;;26.62;51.10
21520;BME280;10921;53.614;9.882;2023-06-22T07:45:18;101798.41;;;26.75;50.04
21520;BME280;10921;53.614;9.882;2023-06-22T07:47:44;101794.72;;;26.87;48.31
21520;BME280;10921;53.614;9.882;2023-06-22T07:50:11;101769.31;;;26.80;49.40
21520;BME280;10921;53.614;9.882;2023-06-22T07:52:38;101796.28;;;27.20;49.58
21520;BME280;10921;53.614;9.882;2023-06-22T07:55:04;101745.31;;;27.01;48.85
21520;BME280;10921;53.614;9.882;2023-06-22T07:57:31;101793.75;;;27.55;49.10
21520;BME280;10921;53.614;9.882;2023-06-22T08:00:03;101801.50;;;27.76;47.24
21520;BME280;10921;53.614;9.882;2023-06-22T08:02:33;101789.50;;;27.89;46.24
21520;BME280;10921;53.614;9.882;2023-06-22T08:04:59;101800.66;;;28.06;45.13
21520;BME280;10921;53.614;9.882;2023-06-22T08:07:45;101797.50;;;28.20;45.68
21520;BME280;10921;53.614;9.882;2023-06-22T08:10:14;101791.53;;;28.23;47.75
21520;BME280;10921;53.614;9.882;2023-06-22T08:12:42;101741.00;;;28.01;44.23
21520;BME280;10921;53.614;9.882;2023-06-22T08:15:09;101801.84;;;28.40;43.65
21520;BME280;10921;53.614;9.882;2023-06-22T08:17:37;101792.16;;;28.37;44.08
21520;BME280;10921;53.614;9.882;2023-06-22T08:20:05;101796.72;;;28.55;44.77
21520;BME280;10921;53.614;9.882;2023-06-22T08:22:36;101782.84;;;28.50;44.27
21520;BME280;10921;53.614;9.882;2023-06-22T08:25:03;101796.81;;;28.60;43.72
21520;BME280;10921;53.614;9.882;2023-06-22T08:27:30;101778.81;;;28.52;43.49
21520;BME280;10921;53.614;9.882;2023-06-22T08:30:00;101776.06;;;28.64;45.02
21520;BME280;10921;53.614;9.882;2023-06-22T08:32:28;101788.47;;;28.66;42.92
21520;BME280;10921;53.614;9.882;2023-06-22T08:34:56;101786.19;;;28.75;43.39
21520;BME280;10921;53.614;9.882;2023-06-22T08:37:23;101785.50;;;28.80;42.44
21520;BME280;10921;53.614;9.882;2023-06-22T08:39:59;101784.81;;;28.84;42.66
21520;BME280;10921;53.614;9.882;2023-06-22T08:42:27;101774.72;;;28.78;42.64
21520;BME280;10921;53.614;9.882;2023-06-22T08:44:54;101771.16;;;28.78;43.90
21520;BME280;10921;53.614;9.882;2023-06-22T08:47:20;101781.81;;;28.97;44.16
21520;BME280;10921;53.614;9.882;2023-06-22T08:49:47;101776.06;;;28.99;41.97
21520;BME280;10921;53.614;9.882;2023-06-22T08:52:14;101760.41;;;28.99;42.57
21520;BME280;10921;53.614;9.882;2023-06-22T08:54:41;101768.38;;;29.13;42.91
21520;BME280;10921;53.614;9.882;2023-06-22T08:57:07;101753.94;;;29.17;42.04
21520;BME280;10921;53.614;9.882;2023-06-22T08:59:34;101749.84;;;29.20;42.17
21520;BME280;10921;53.614;9.882;2023-06-22T09:02:01;101755.44;;;29.25;44.15
21520;BME280;10921;53.614;9.882;2023-06-22T09:04:27;101747.91;;;29.32;41.46
21520;BME280;10921;53.614;9.882;2023-06-22T09:06:54;101759.56;;;29.51;44.04
21520;BME280;10921;53.614;9.882;2023-06-22T09:09:21;101756.88;;;29.67;41.57
21520;BME280;10921;53.614;9.882;2023-06-22T09:11:48;101750.38;;;29.73;41.46
21520;BME280;10921;53.614;9.882;2023-06-22T09:14:15;101696.25;;;29.46;40.86
21520;BME280;10921;53.614;9.882;2023-06-22T09:16:41;101747.19;;;29.93;39.58
21520;BME280;10921;53.614;9.882;2023-06-22T09:19:08;101742.81;;;30.09;39.62
21520;BME280;10921;53.614;9.882;2023-06-22T09:21:34;101746.88;;;30.40;39.74
21520;BME280;10921;53.614;9.882;2023-06-22T09:24:01;101743.38;;;30.61;40.46
21520;BME280;10921;53.614;9.882;2023-06-22T09:26:28;101736.75;;;31.01;41.76
21520;BME280;10921;53.614;9.882;2023-06-22T09:28:54;101741.28;;;31.29;40.63
21520;BME280;10921;53.614;9.882;2023-06-22T09:31:21;101735.97;;;31.71;40.62
21520;BME280;10921;53.614;9.882;2023-06-22T09:33:54;101740.41;;;32.04;39.87
21520;BME280;10921;53.614;9.882;2023-06-22T09:36:21;101733.81;;;32.42;38.36
21520;BME280;10921;53.614;9.882;2023-06-22T09:38:48;101716.00;;;32.65;36.92
21520;BME280;10921;53.614;9.882;2023-06-22T09:41:21;101731.91;;;32.84;36.37
21520;BME280;10921;53.614;9.882;2023-06-22T09:43:48;101716.19;;;32.95;37.73
21520;BME280;10921;53.614;9.882;2023-06-22T09:46:16;101725.63;;;32.99;35.49
21520;BME280;10921;53.614;9.882;2023-06-22T09:48:42;101667.50;;;32.84;36.98
21520;BME280;10921;53.614;9.882;2023-06-22T09:51:09;101720.22;;;33.30;36.49
21520;BME280;10921;53.614;9.882;2023-06-22T09:53:36;101712.19;;;33.33;34.96
21520;BME280;10921;53.614;9.882;2023-06-22T09:56:03;101722.22;;;33.44;35.24
21520;BME280;10921;53.614;9.882;2023-06-22T09:58:30;101716.41;;;33.51;35.18
21520;BME280;10921;53.614;9.882;2023-06-22T10:00:56;101718.63;;;33.54;33.29
21520;BME280;10921;53.614;9.882;2023-06-22T10:03:23;101666.28;;;33.37;34.28
21520;BME280;10921;53.614;9.882;2023-06-22T10:05:50;101700.09;;;33.70;34.62
21520;BME280;10921;53.614;9.882;2023-06-22T10:08:16;101707.81;;;33.63;34.83
21520;BME280;10921;53.614;9.882;2023-06-22T10:10:43;101710.31;;;33.64;34.87
21520;BME280;10921;53.614;9.882;2023-06-22T10:13:10;101697.34;;;33.60;34.46
21520;BME280;10921;53.614;9.882;2023-06-22T10:15:37;101706.47;;;33.70;33.33
21520;BME280;10921;53.614;9.882;2023-06-22T10:18:04;101698.16;;;33.60;33.17
21520;BME280;10921;53.614;9.882;2023-06-22T10:20:31;101693.16;;;33.52;35.31
21520;BME280;10921;53.614;9.882;2023-06-22T10:22:57;101700.09;;;33.65;35.89
21520;BME280;10921;53.614;9.882;2023-06-22T10:25:26;101679.03;;;33.48;34.60
21520;BME280;10921;53.614;9.882;2023-06-22T10:27:53;101690.66;;;33.50;33.42
21520;BME280;10921;53.614;9.882;2023-06-22T10:30:20;101693.44;;;33.45;35.05
21520;BME280;10921;53.614;9.882;2023-06-22T10:32:46;101655.16;;;33.12;33.87
21520;BME280;10921;53.614;9.882;2023-06-22T10:35:13;101685.84;;;33.10;35.84
21520;BME280;10921;53.614;9.882;2023-06-22T10:37:43;101655.28;;;32.75;34.99
21520;BME280;10921;53.614;9.882;2023-06-22T10:40:12;101676.88;;;32.78;38.17
21520;BME280;10921;53.614;9.882;2023-06-22T10:42:39;101684.53;;;32.71;35.66
21520;BME280;10921;53.614;9.882;2023-06-22T10:45:06;101668.16;;;32.59;38.79
21520;BME280;10921;53.614;9.882;2023-06-22T10:47:33;101644.75;;;32.67;36.32
21520;BME280;10921;53.614;9.882;2023-06-22T10:50:01;101666.66;;;32.78;35.56
21520;BME280;10921;53.614;9.882;2023-06-22T10:52:27;101667.78;;;32.88;37.51
21520;BME280;10921;53.614;9.882;2023-06-22T10:54:54;101668.59;;;32.88;37.47
21520;BME280;10921;53.614;9.882;2023-06-22T10:57:21;101622.03;;;32.60;38.49
21520;BME280;10921;53.614;9.882;2023-06-22T10:59:48;101655.53;;;32.68;35.46
21520;BME280;10921;53.614;9.882;2023-06-22T11:02:14;101642.13;;;32.45;37.30
21520;BME280;10921;53.614;9.882;2023-06-22T11:04:41;101654.00;;;32.45;37.76
21520;BME280;10921;53.614;9.882;2023-06-22T11:07:07;101646.75;;;32.29;37.10
21520;BME280;10921;53.614;9.882;2023-06-22T11:09:34;101646.47;;;32.31;37.63
21520;BME280;10921;53.614;9.882;2023-06-22T11:12:02;101655.91;;;32.40;36.32
21520;BME280;10921;53.614;9.882;2023-06-22T11:14:29;101659.22;;;32.42;36.99
21520;BME280;10921;53.614;9.882;2023-06-22T11:16:55;101649.00;;;32.37;37.51
21520;BME280;10921;53.614;9.882;2023-06-22T11:19:22;101638.53;;;32.44;36.39
21520;BME280;10921;53.614;9.882;2023-06-22T11:21:49;101632.81;;;32.61;36.19
21520;BME280;10921;53.614;9.882;2023-06-22T11:24:16;101627.88;;;32.68;37.08
21520;BME280;10921;53.614;9.882;2023-06-22T11:26:43;101630.97;;;32.77;36.74
21520;BME280;10921;53.614;9.882;2023-06-22T11:29:10;101635.44;;;32.83;37.30
21520;BME280;10921;53.614;9.882;2023-06-22T11:31:53;101601.72;;;32.81;36.98
21520;BME280;10921;53.614;9.882;2023-06-22T11:34:20;101628.56;;;32.96;36.15
21520;BME280;10921;53.614;9.882;2023-06-22T11:36:46;101629.97;;;32.98;35.84
21520;BME280;10921;53.614;9.882;2023-06-22T11:39:14;101610.56;;;32.83;35.80
21520;BME280;10921;53.614;9.882;2023-06-22T11:41:41;101617.09;;;32.72;35.74
21520;BME280;10921;53.614;9.882;2023-06-22T11:44:08;101602.81;;;32.80;35.74
21520;BME280;10921;53.614;9.882;2023-06-22T11:46:35;101615.19;;;32.72;36.75
21520;BME280;10921;53.614;9.882;2023-06-22T11:49:02;101614.34;;;32.72;35.29
21520;BME280;10921;53.614;9.882;2023-06-22T11:51:28;101591.09;;;32.63;38.65
21520;BME280;10921;53.614;9.882;2023-06-22T11:53:58;101620.81;;;32.93;37.27
21520;BME280;10921;53.614;9.882;2023-06-22T11:56:25;101605.06;;;33.03;35.15
21520;BME280;10921;53.614;9.882;2023-06-22T11:58:51;101598.25;;;33.26;34.86
21520;BME280;10921;53.614;9.882;2023-06-22T12:01:18;101584.13;;;33.28;37.05
21520;BME280;10921;53.614;9.882;2023-06-22T12:03:45;101609.31;;;33.67;35.99
21520;BME280;10921;53.614;9.882;2023-06-22T12:06:12;101588.00;;;33.67;34.73
21520;BME280;10921;53.614;9.882;2023-06-22T12:08:39;101590.50;;;33.74;34.33
21520;BME280;10921;53.614;9.882;2023-06-22T12:11:06;101569.47;;;33.52;37.15
21520;BME280;10921;53.614;9.882;2023-06-22T12:13:33;101592.16;;;33.70;36.66
21520;BME280;10921;53.614;9.882;2023-06-22T12:15:59;101555.63;;;33.52;35.50
21520;BME280;10921;53.614;9.882;2023-06-22T12:18:26;101585.25;;;33.82;35.05
21520;BME280;10921;53.614;9.882;2023-06-22T12:20:53;101560.63;;;33.91;35.53
21520;BME280;10921;53.614;9.882;2023-06-22T12:23:20;101565.25;;;34.21;35.56
21520;BME280;10921;53.614;9.882;2023-06-22T12:25:46;101566.03;;;34.37;34.47
21520;BME280;10921;53.614;9.882;2023-06-22T12:28:13;101570.16;;;34.44;34.14
21520;BME280;10921;53.614;9.882;2023-06-22T12:30:40;101567.09;;;34.51;34.37
21520;BME280;10921;53.614;9.882;2023-06-22T12:33:06;101557.88;;;34.61;34.79
21520;BME280;10921;53.614;9.882;2023-06-22T12:35:34;101532.44;;;34.48;35.71
21520;BME280;10921;53.614;9.882;2023-06-22T12:38:01;101561.41;;;34.71;35.53
21520;BME280;10921;53.614;9.882;2023-06-22T12:40:27;101560.84;;;34.74;35.00
21520;BME280;10921;53.614;9.882;2023-06-22T12:42:54;101572.22;;;34.73;34.98
21520;BME280;10921;53.614;9.882;2023-06-22T12:45:21;101559.75;;;34.75;34.09
21520;BME280;10921;53.614;9.882;2023-06-22T12:47:48;101550.97;;;34.58;34.35
21520;BME280;10921;53.614;9.882;2023-06-22T12:50:16;101546.59;;;34.47;33.81
21520;BME280;10921;53.614;9.882;2023-06-22T12:52:42;101551.88;;;34.43;33.63
21520;BME280;10921;53.614;9.882;2023-06-22T12:55:09;101549.16;;;34.28;36.26
21520;BME280;10921;53.614;9.882;2023-06-22T12:57:36;101546.38;;;34.23;36.30
21520;BME280;10921;53.614;9.882;2023-06-22T13:00:03;101550.84;;;34.19;35.61